Time;durP1;ratioP1;P1;durP2;ratioP2;P2;SDS_P1;SDS_P2;PMS_P1;PMS_P2;Temp;Humidity;BMP_temperature;BMP_pressure;BME280_temperature;BME280_humidity;BME280_pressure;Samples;Min_cycle;Max_cycle;Signal;HPM_P1;HPM_P2
2021/04/08 00:02:16;;;;;;;8.88;1.50;;;2.80;99.90;;;;;;5104389;28;20058;-82
2021/04/08 00:04:42;;;;;;;13.02;1.00;;;2.80;99.90;;;;;;5104776;28;20059;-83
2021/04/08 00:07:09;;;;;;;7.82;1.58;;;2.80;99.90;;;;;;5058730;28;20052;-82
2021/04/08 00:09:35;;;;;;;13.38;1.38;;;2.80;99.90;;;;;;5084899;28;20055;-83
2021/04/08 00:12:02;;;;;;;4.70;1.00;;;2.90;99.90;;;;;;5102024;28;20141;-83
2021/04/08 00:14:28;;;;;;;8.63;1.13;;;2.90;99.90;;;;;;5077268;28;20047;-82
2021/04/08 00:16:54;;;;;;;9.25;1.30;;;2.90;99.90;;;;;;5088839;28;20146;-84
2021/04/08 00:19:21;;;;;;;10.27;1.00;;;2.90;99.90;;;;;;5092617;27;20101;-82
2021/04/08 00:21:50;;;;;;;8.98;1.05;;;2.90;99.90;;;;;;5105593;27;20135;-83
2021/04/08 00:24:17;;;;;;;15.02;2.05;;;2.90;99.90;;;;;;5095085;27;20051;-82
2021/04/08 00:26:43;;;;;;;9.15;1.02;;;2.90;99.90;;;;;;5087125;28;20456;-82
2021/04/08 00:29:13;;;;;;;8.52;1.25;;;3.00;99.90;;;;;;5076892;28;20583;-83
2021/04/08 00:31:40;;;;;;;7.70;1.20;;;2.90;99.90;;;;;;5090362;28;20051;-82
2021/04/08 00:34:09;;;;;;;7.40;1.10;;;2.90;99.90;;;;;;5048918;28;20045;-82
2021/04/08 00:36:36;;;;;;;8.10;1.40;;;2.90;99.90;;;;;;5076034;28;20091;-81
2021/04/08 00:39:06;;;;;;;11.95;1.23;;;2.80;99.90;;;;;;5100682;28;20051;-82
2021/04/08 00:41:33;;;;;;;7.93;0.95;;;2.80;99.90;;;;;;5078806;28;20051;-82
2021/04/08 00:44:00;;;;;;;12.70;2.10;;;2.80;99.90;;;;;;5098895;28;20593;-82
2021/04/08 00:46:27;;;;;;;7.50;1.05;;;2.80;99.90;;;;;;5113287;27;20051;-82
2021/04/08 00:48:53;;;;;;;7.57;0.60;;;2.80;99.90;;;;;;5101588;27;20081;-82
2021/04/08 00:51:19;;;;;;;13.25;1.20;;;2.80;99.90;;;;;;5102091;28;20056;-82
2021/04/08 00:53:47;;;;;;;6.80;0.85;;;2.80;99.90;;;;;;5102229;28;20043;-82
2021/04/08 00:56:16;;;;;;;5.72;0.77;;;2.80;99.90;;;;;;5084643;28;20229;-83
2021/04/08 00:58:43;;;;;;;7.32;1.23;;;2.80;99.90;;;;;;5106131;28;20053;-82
2021/04/08 01:01:11;;;;;;;7.25;1.17;;;2.80;99.90;;;;;;5102265;28;20047;-82
2021/04/08 01:03:37;;;;;;;9.65;1.73;;;2.80;99.90;;;;;;5106530;28;20111;-82
2021/04/08 01:06:04;;;;;;;10.35;0.70;;;2.80;99.90;;;;;;5101360;27;20513;-83
2021/04/08 01:08:31;;;;;;;4.70;0.63;;;2.80;99.90;;;;;;5105857;28;20113;-82
2021/04/08 01:10:58;;;;;;;5.20;0.90;;;2.80;99.90;;;;;;5103198;27;20135;-82
2021/04/08 01:13:25;;;;;;;6.00;0.90;;;2.80;99.90;;;;;;5115457;27;20101;-82
2021/04/08 01:15:51;;;;;;;8.18;1.88;;;2.70;99.90;;;;;;5104644;28;21051;-82
2021/04/08 01:18:32;;;;;;;7.15;1.05;;;2.70;99.90;;;;;;5107495;27;20469;-82
2021/04/08 01:21:12;;;;;;;9.45;1.48;;;2.70;99.90;;;;;;5105565;28;20059;-82
2021/04/08 01:23:57;;;;;;;5.57;0.73;;;2.70;99.90;;;;;;5107490;27;20107;-82
2021/04/08 01:27:01;;;;;;;1.98;0.80;;;2.60;99.90;;;;;;5102798;28;20043;-82
2021/04/08 01:29:55;;;;;;;12.07;1.42;;;2.60;99.90;;;;;;5100871;28;20047;-82
2021/04/08 01:32:25;;;;;;;18.00;1.67;;;2.50;99.90;;;;;;5103256;28;20043;-82
2021/04/08 01:34:53;;;;;;;4.50;0.90;;;2.50;99.90;;;;;;5101183;28;20032;-82
2021/04/08 01:37:28;;;;;;;11.32;1.40;;;2.50;99.90;;;;;;5096826;27;20050;-82
2021/04/08 01:39:56;;;;;;;5.22;0.80;;;2.40;99.90;;;;;;5102709;28;20070;-82
2021/04/08 01:42:25;;;;;;;6.93;1.00;;;2.40;99.90;;;;;;5100410;28;20048;-82
2021/04/08 01:44:54;;;;;;;8.20;1.05;;;2.30;99.90;;;;;;5102622;28;20577;-82
2021/04/08 01:47:22;;;;;;;10.93;1.45;;;2.30;99.90;;;;;;5114922;27;20559;-82
2021/04/08 01:49:51;;;;;;;10.77;1.95;;;2.30;99.90;;;;;;5097928;28;20921;-82
2021/04/08 01:52:19;;;;;;;12.82;1.38;;;2.20;99.90;;;;;;5096841;28;20043;-82
2021/04/08 01:54:55;;;;;;;13.93;2.30;;;2.20;99.90;;;;;;5099708;28;20054;-82
2021/04/08 01:57:23;;;;;;;8.70;1.02;;;2.10;99.90;;;;;;5113466;27;20044;-82
2021/04/08 01:59:50;;;;;;;12.48;1.77;;;2.10;99.90;;;;;;5100250;28;20055;-82
2021/04/08 02:02:17;;;;;;;6.75;1.25;;;2.00;99.90;;;;;;5099028;28;20043;-82
2021/04/08 02:04:45;;;;;;;5.70;0.77;;;2.00;99.90;;;;;;5094162;28;20103;-82
2021/04/08 02:07:13;;;;;;;6.25;1.02;;;1.90;99.90;;;;;;5108400;27;20694;-82
2021/04/08 02:09:40;;;;;;;7.82;1.10;;;1.90;99.90;;;;;;5099346;28;20053;-82
2021/04/08 02:12:08;;;;;;;11.82;1.10;;;1.80;99.90;;;;;;5111404;27;20079;-82
2021/04/08 02:14:38;;;;;;;7.78;1.15;;;1.80;99.90;;;;;;5113637;27;20055;-82
2021/04/08 02:17:05;;;;;;;7.50;1.10;;;1.80;99.90;;;;;;5103895;28;20483;-82
2021/04/08 02:19:32;;;;;;;10.73;0.75;;;1.80;99.90;;;;;;5105879;28;20071;-82
2021/04/08 02:22:01;;;;;;;6.53;0.95;;;1.90;99.90;;;;;;5099701;28;20481;-82
2021/04/08 02:24:29;;;;;;;9.05;1.45;;;2.00;99.90;;;;;;5119121;28;20145;-82
2021/04/08 02:26:56;;;;;;;9.10;0.93;;;2.10;99.90;;;;;;5101681;28;20150;-82
2021/04/08 02:29:23;;;;;;;10.35;0.77;;;2.10;99.90;;;;;;5102096;28;20048;-81
2021/04/08 02:31:51;;;;;;;7.68;1.45;;;2.20;99.90;;;;;;5110864;28;20059;-82
2021/04/08 02:34:19;;;;;;;5.07;1.20;;;2.20;99.90;;;;;;5103691;28;20051;-82
2021/04/08 02:36:45;;;;;;;7.97;0.80;;;2.30;99.90;;;;;;5100830;28;20051;-82
2021/04/08 02:39:11;;;;;;;5.32;0.55;;;2.20;99.90;;;;;;5102284;28;20063;-82
2021/04/08 02:41:46;;;;;;;12.18;1.10;;;2.30;99.90;;;;;;5104917;27;20086;-82
2021/04/08 02:44:14;;;;;;;8.40;1.65;;;2.30;99.90;;;;;;5108994;28;20130;-82
2021/04/08 02:46:42;;;;;;;10.07;0.98;;;2.30;99.90;;;;;;5097994;28;20424;-81
2021/04/08 02:49:10;;;;;;;8.90;0.90;;;2.30;99.90;;;;;;5062222;28;20048;-81
2021/04/08 02:51:56;;;;;;;7.25;0.98;;;2.20;99.90;;;;;;5086649;28;20111;-81
2021/04/08 02:54:40;;;;;;;4.93;0.88;;;2.20;99.90;;;;;;5103699;27;20524;-81
2021/04/08 02:57:15;;;;;;;6.97;0.98;;;2.20;99.90;;;;;;5104748;27;20058;-81
2021/04/08 02:59:47;;;;;;;8.07;1.00;;;2.30;99.90;;;;;;5102922;28;20525;-82
2021/04/08 03:02:17;;;;;;;11.18;0.70;;;2.20;99.90;;;;;;5104159;27;20115;-80
2021/04/08 03:04:48;;;;;;;7.05;1.52;;;2.20;99.90;;;;;;5106997;28;20052;-81
2021/04/08 03:07:23;;;;;;;7.50;0.98;;;2.20;99.90;;;;;;5113199;27;20131;-81
2021/04/08 03:09:51;;;;;;;4.75;1.08;;;2.20;99.90;;;;;;5102860;28;20227;-81
2021/04/08 03:12:19;;;;;;;14.77;1.40;;;2.20;99.90;;;;;;5096915;28;20130;-80
2021/04/08 03:14:50;;;;;;;10.25;0.65;;;2.20;99.90;;;;;;5106790;28;20048;-80
2021/04/08 03:17:19;;;;;;;6.82;0.73;;;2.20;99.90;;;;;;5105600;28;20143;-81
2021/04/08 03:19:48;;;;;;;8.52;1.00;;;2.20;99.90;;;;;;5104684;27;20135;-81
2021/04/08 03:22:16;;;;;;;7.97;0.77;;;2.10;99.90;;;;;;5107214;27;20059;-81
2021/04/08 03:24:43;;;;;;;9.50;0.88;;;2.20;99.90;;;;;;5105603;28;20100;-81
2021/04/08 03:27:11;;;;;;;7.68;1.05;;;2.20;99.90;;;;;;5096899;28;21289;-81
2021/04/08 03:29:41;;;;;;;8.38;0.57;;;2.20;99.90;;;;;;5103292;28;20101;-81
2021/04/08 03:32:08;;;;;;;7.78;1.70;;;2.20;99.90;;;;;;5097005;28;20418;-81
2021/04/08 03:34:39;;;;;;;3.10;0.88;;;2.20;99.90;;;;;;5106114;27;20051;-81
2021/04/08 03:37:06;;;;;;;8.50;0.82;;;2.20;99.90;;;;;;5105102;27;20047;-81
2021/04/08 03:39:32;;;;;;;5.90;0.82;;;2.20;99.90;;;;;;5103889;28;20054;-81
2021/04/08 03:41:59;;;;;;;2.65;1.10;;;2.20;99.90;;;;;;5102069;27;20225;-81
2021/04/08 03:44:28;;;;;;;9.40;0.73;;;2.20;99.90;;;;;;5104567;28;20120;-81
2021/04/08 03:46:58;;;;;;;5.65;1.42;;;2.20;99.90;;;;;;5105058;27;20040;-81
2021/04/08 03:49:27;;;;;;;9.25;1.23;;;2.20;99.90;;;;;;5100186;28;20048;-81
2021/04/08 03:51:54;;;;;;;6.18;0.63;;;2.20;99.90;;;;;;5117278;27;20062;-81
2021/04/08 03:54:23;;;;;;;7.38;0.93;;;2.20;99.90;;;;;;5097931;28;20065;-81
2021/04/08 03:56:51;;;;;;;4.53;1.05;;;2.20;99.90;;;;;;5097846;27;20060;-81
2021/04/08 03:59:18;;;;;;;8.45;1.13;;;2.20;99.90;;;;;;5100803;27;20051;-81
2021/04/08 04:01:46;;;;;;;6.10;0.82;;;2.20;99.90;;;;;;5104195;27;20069;-81
2021/04/08 04:04:13;;;;;;;4.82;0.70;;;2.30;99.90;;;;;;5087147;28;20131;-81
2021/04/08 04:06:42;;;;;;;8.52;1.65;;;2.30;99.90;;;;;;5107251;27;20561;-81
2021/04/08 04:09:14;;;;;;;4.13;0.73;;;2.40;99.90;;;;;;5100939;27;20138;-82
2021/04/08 04:11:44;;;;;;;5.68;0.90;;;2.40;99.90;;;;;;5098529;27;20047;-81
2021/04/08 04:14:14;;;;;;;10.50;0.73;;;2.40;99.90;;;;;;5099408;27;20454;-81
2021/04/08 04:16:44;;;;;;;6.22;0.90;;;2.40;99.90;;;;;;5101500;27;20055;-81
2021/04/08 04:19:11;;;;;;;6.20;0.68;;;2.50;99.90;;;;;;5098898;28;20035;-80
2021/04/08 04:21:38;;;;;;;4.43;0.82;;;2.50;99.90;;;;;;5097036;27;20058;-81
2021/04/08 04:24:05;;;;;;;5.60;0.50;;;2.50;99.90;;;;;;5106016;27;20151;-81
2021/04/08 04:26:32;;;;;;;4.82;0.85;;;2.60;99.90;;;;;;5105407;27;20051;-81
2021/04/08 04:28:59;;;;;;;6.68;0.90;;;2.60;99.90;;;;;;5094427;28;20154;-80
2021/04/08 04:31:25;;;;;;;2.20;1.02;;;2.60;99.90;;;;;;5099160;28;20047;-80
2021/04/08 04:33:51;;;;;;;9.07;0.90;;;2.60;99.90;;;;;;5098572;27;20055;-80
2021/04/08 04:36:18;;;;;;;2.85;1.17;;;2.60;99.90;;;;;;5099827;27;20564;-80
2021/04/08 04:38:45;;;;;;;7.20;0.73;;;2.60;99.90;;;;;;5094412;27;20056;-80
2021/04/08 04:41:12;;;;;;;5.65;0.73;;;2.70;99.90;;;;;;5099225;27;20057;-80
2021/04/08 04:43:40;;;;;;;5.22;0.95;;;2.70;99.90;;;;;;5080744;28;21147;-80
2021/04/08 04:46:08;;;;;;;2.55;0.70;;;2.70;99.90;;;;;;5092782;27;20047;-81
2021/04/08 04:48:35;;;;;;;4.07;0.90;;;2.70;99.90;;;;;;5101253;28;20134;-81
2021/04/08 04:51:02;;;;;;;7.47;0.68;;;2.70;99.90;;;;;;5103122;28;20079;-81
2021/04/08 04:53:28;;;;;;;5.15;0.68;;;2.70;99.90;;;;;;5085320;28;20101;-81
2021/04/08 04:55:54;;;;;;;6.88;0.82;;;2.70;99.90;;;;;;5100072;28;21077;-80
2021/04/08 04:58:20;;;;;;;0.98;0.43;;;2.70;99.90;;;;;;5102540;27;20115;-81
2021/04/08 05:00:47;;;;;;;5.45;0.90;;;2.70;99.90;;;;;;5097318;28;20502;-81
2021/04/08 05:03:13;;;;;;;4.32;1.08;;;2.70;99.90;;;;;;5098983;28;20066;-81
2021/04/08 05:05:39;;;;;;;5.15;0.98;;;2.60;99.90;;;;;;5100841;28;20110;-82
2021/04/08 05:08:06;;;;;;;3.55;0.68;;;2.60;99.90;;;;;;5100318;28;20099;-81
2021/04/08 05:10:32;;;;;;;5.65;0.75;;;2.60;99.90;;;;;;5104936;28;20079;-81
2021/04/08 05:12:58;;;;;;;5.35;0.60;;;2.40;99.90;;;;;;5105084;28;20077;-82
2021/04/08 05:15:24;;;;;;;3.85;0.75;;;2.40;99.90;;;;;;5105754;28;20139;-81
2021/04/08 05:18:10;;;;;;;6.93;1.15;;;2.30;99.90;;;;;;5103585;28;20058;-82
2021/04/08 05:20:37;;;;;;;5.72;1.17;;;2.20;99.90;;;;;;5106920;28;20047;-81
2021/04/08 05:23:08;;;;;;;6.97;1.50;;;2.20;99.90;;;;;;5097696;28;20100;-81
2021/04/08 05:25:36;;;;;;;1.98;0.63;;;2.10;99.90;;;;;;5095161;28;20051;-82
2021/04/08 05:28:03;;;;;;;1.50;0.52;;;2.10;99.90;;;;;;5098105;28;20449;-82
2021/04/08 05:30:29;;;;;;;7.30;1.20;;;2.10;99.90;;;;;;5097102;28;20058;-81
2021/04/08 05:32:55;;;;;;;4.85;1.30;;;2.10;99.90;;;;;;5098626;28;20081;-81
2021/04/08 05:35:22;;;;;;;5.70;1.20;;;2.10;99.90;;;;;;5098435;27;20053;-82
2021/04/08 05:37:48;;;;;;;6.03;0.90;;;2.20;99.90;;;;;;5094616;28;20096;-82
2021/04/08 05:40:15;;;;;;;2.58;0.85;;;2.30;99.90;;;;;;5098968;28;20063;-81
2021/04/08 05:42:45;;;;;;;12.75;2.05;;;2.30;99.90;;;;;;5103646;27;20052;-82
2021/04/08 05:45:13;;;;;;;11.70;1.40;;;2.30;99.90;;;;;;5103813;28;20551;-81
2021/04/08 05:47:40;;;;;;;9.27;1.27;;;2.40;99.90;;;;;;5107865;27;20463;-82
2021/04/08 05:50:07;;;;;;;3.75;1.02;;;2.50;99.90;;;;;;5093863;28;20102;-80
2021/04/08 05:52:33;;;;;;;3.63;0.70;;;2.50;99.90;;;;;;5098279;28;20051;-82
2021/04/08 05:54:59;;;;;;;7.80;0.85;;;2.60;99.90;;;;;;5099884;28;20057;-79
2021/04/08 05:57:25;;;;;;;5.90;0.95;;;2.60;99.90;;;;;;5089455;28;20101;-81
2021/04/08 05:59:51;;;;;;;11.95;1.65;;;2.70;99.90;;;;;;5093312;28;20051;-79
2021/04/08 06:02:18;;;;;;;6.80;1.73;;;2.80;99.90;;;;;;5087843;27;20489;-79
2021/04/08 06:04:45;;;;;;;4.68;1.73;;;2.80;99.90;;;;;;5091860;28;20051;-80
2021/04/08 06:07:11;;;;;;;8.25;1.20;;;2.90;99.90;;;;;;5094624;28;20071;-80
2021/04/08 06:09:37;;;;;;;9.48;1.67;;;2.90;99.90;;;;;;5094565;28;20055;-79
2021/04/08 06:12:04;;;;;;;6.13;1.17;;;2.90;99.90;;;;;;5094251;28;20040;-80
2021/04/08 06:14:32;;;;;;;4.97;0.98;;;3.00;99.90;;;;;;5104260;28;20452;-78
2021/04/08 06:16:58;;;;;;;6.80;1.13;;;3.00;99.90;;;;;;5102099;27;20126;-81
2021/04/08 06:19:24;;;;;;;9.60;1.38;;;3.10;99.90;;;;;;5101906;28;20104;-83
2021/04/08 06:21:51;;;;;;;7.28;1.13;;;3.20;99.90;;;;;;5105358;28;20075;-82
2021/04/08 06:24:17;;;;;;;7.80;2.45;;;3.20;99.90;;;;;;5100901;28;20088;-83
2021/04/08 06:26:43;;;;;;;7.50;1.67;;;3.30;99.90;;;;;;5099964;28;20500;-81
2021/04/08 06:29:11;;;;;;;10.55;2.00;;;3.30;99.90;;;;;;5101838;28;20117;-83
2021/04/08 06:31:47;;;;;;;5.38;0.95;;;3.40;99.90;;;;;;5096859;28;20386;-82
2021/04/08 06:34:13;;;;;;;7.90;1.20;;;3.50;99.90;;;;;;5102464;28;20062;-82
2021/04/08 06:36:40;;;;;;;7.50;0.82;;;3.60;99.90;;;;;;5102625;28;20048;-81
2021/04/08 06:39:06;;;;;;;5.53;1.20;;;3.60;99.90;;;;;;5102508;28;20479;-82
2021/04/08 06:41:36;;;;;;;7.88;1.05;;;3.70;99.90;;;;;;5103334;28;20031;-82
2021/04/08 06:44:04;;;;;;;7.18;1.30;;;3.80;99.90;;;;;;5094001;28;20044;-82
2021/04/08 06:46:58;;;;;;;3.63;0.73;;;3.80;99.90;;;;;;5097319;28;20094;-82
2021/04/08 06:49:37;;;;;;;5.10;0.90;;;3.90;99.90;;;;;;5104038;28;20479;-82
2021/04/08 06:52:06;;;;;;;4.15;1.35;;;3.80;99.90;;;;;;5103440;28;20074;-82
2021/04/08 06:54:37;;;;;;;19.13;6.43;;;3.90;99.90;;;;;;5079672;28;20399;-82
2021/04/08 06:57:04;;;;;;;13.45;2.15;;;3.90;99.90;;;;;;5094980;28;20079;-82
2021/04/08 06:59:35;;;;;;;6.20;1.80;;;4.00;99.90;;;;;;5099720;28;20166;-83
2021/04/08 07:02:02;;;;;;;1.90;0.80;;;4.00;99.90;;;;;;5101949;28;20147;-83
2021/04/08 07:04:29;;;;;;;3.13;1.42;;;4.00;99.90;;;;;;5101485;28;20039;-83
2021/04/08 07:06:55;;;;;;;11.98;1.65;;;4.00;99.90;;;;;;5102165;28;20077;-81
2021/04/08 07:09:22;;;;;;;6.93;1.20;;;4.10;99.90;;;;;;5095480;28;20054;-80
2021/04/08 07:11:48;;;;;;;10.18;1.40;;;4.20;99.90;;;;;;5096685;28;20071;-82
2021/04/08 07:14:15;;;;;;;10.35;1.10;;;4.20;99.90;;;;;;5097567;28;20147;-82
2021/04/08 07:16:42;;;;;;;5.40;1.23;;;4.30;99.90;;;;;;5095408;28;20138;-82
2021/04/08 07:19:08;;;;;;;6.65;1.45;;;4.40;99.90;;;;;;5101695;28;20129;-82
2021/04/08 07:21:38;;;;;;;6.45;1.60;;;4.50;99.90;;;;;;5100597;28;20051;-81
2021/04/08 07:24:13;;;;;;;10.27;3.80;;;4.50;99.90;;;;;;5105580;28;20759;-82
2021/04/08 07:26:52;;;;;;;7.40;1.95;;;4.60;99.90;;;;;;5107207;28;20595;-82
2021/04/08 07:29:22;;;;;;;16.40;1.63;;;4.70;99.90;;;;;;5103867;28;20054;-81
2021/04/08 07:31:49;;;;;;;8.25;1.70;;;4.70;99.90;;;;;;5094374;28;20127;-81
2021/04/08 07:34:35;;;;;;;3.90;1.88;;;4.80;99.90;;;;;;5111455;27;20114;-82
2021/04/08 07:37:03;;;;;;;6.95;1.58;;;4.80;99.90;;;;;;5108226;28;20051;-82
2021/04/08 07:39:37;;;;;;;5.88;1.65;;;4.90;99.90;;;;;;5102027;27;22469;-81
2021/04/08 07:42:26;;;;;;;8.90;1.50;;;5.00;99.90;;;;;;5105093;28;20505;-81
2021/04/08 07:45:11;;;;;;;5.32;1.45;;;5.10;99.90;;;;;;5111277;27;20138;-81
2021/04/08 07:47:40;;;;;;;14.38;5.20;;;5.10;99.90;;;;;;5101187;28;20055;-81
2021/04/08 07:50:07;;;;;;;7.82;1.95;;;5.20;99.90;;;;;;5096515;28;20058;-81
2021/04/08 07:52:44;;;;;;;7.47;1.40;;;5.20;99.90;;;;;;5104681;27;20090;-80
2021/04/08 07:55:30;;;;;;;4.97;1.20;;;5.20;99.90;;;;;;5095754;28;20572;-81
2021/04/08 07:58:06;;;;;;;4.68;1.40;;;5.30;99.90;;;;;;5099038;28;20044;-82
2021/04/08 08:00:44;;;;;;;10.50;1.92;;;5.40;99.90;;;;;;5109928;28;20056;-82
2021/04/08 08:03:33;;;;;;;5.13;2.00;;;5.50;99.90;;;;;;5124863;27;20138;-82
2021/04/08 08:06:01;;;;;;;5.05;1.52;;;5.50;99.90;;;;;;5099805;27;20071;-82
2021/04/08 08:08:41;;;;;;;8.10;1.70;;;5.60;99.90;;;;;;5107039;28;20074;-81
2021/04/08 08:11:10;;;;;;;5.88;1.67;;;5.70;99.90;;;;;;5120073;27;20125;-81
2021/04/08 08:13:39;;;;;;;6.93;2.03;;;5.80;99.90;;;;;;5106751;27;20842;-82
2021/04/08 08:16:07;;;;;;;7.07;1.77;;;5.90;99.90;;;;;;5096128;27;20514;-80
2021/04/08 08:18:39;;;;;;;4.22;1.70;;;6.00;99.90;;;;;;5111979;27;20043;-80
2021/04/08 08:21:07;;;;;;;7.05;2.65;;;6.10;99.90;;;;;;5100516;27;20078;-81
2021/04/08 08:23:38;;;;;;;4.60;2.40;;;6.20;99.90;;;;;;5091395;28;20182;-80
2021/04/08 08:26:29;;;;;;;3.47;1.92;;;6.30;99.90;;;;;;5097622;27;20051;-82
2021/04/08 08:29:00;;;;;;;8.52;3.08;;;6.40;99.90;;;;;;5094768;27;20051;-79
2021/04/08 08:31:34;;;;;;;4.63;1.90;;;6.50;99.90;;;;;;5095270;28;20047;-80
2021/04/08 08:34:38;;;;;;;3.95;2.30;;;6.60;99.90;;;;;;5090612;28;20069;-80
2021/04/08 08:37:09;;;;;;;3.65;1.80;;;6.70;99.90;;;;;;5081295;28;20048;-80
2021/04/08 08:39:38;;;;;;;5.97;1.77;;;6.80;99.90;;;;;;5095683;28;20135;-81
2021/04/08 08:42:08;;;;;;;6.97;1.80;;;7.00;99.90;;;;;;5092172;27;20483;-80
2021/04/08 08:44:35;;;;;;;2.42;1.60;;;7.20;99.90;;;;;;5103555;27;20466;-80
2021/04/08 08:47:03;;;;;;;7.78;1.88;;;7.40;99.90;;;;;;5098033;27;20499;-80
2021/04/08 08:49:48;;;;;;;4.07;2.17;;;7.60;99.90;;;;;;5075091;28;20109;-80
2021/04/08 08:52:24;;;;;;;3.67;2.15;;;7.80;99.90;;;;;;5098701;27;20575;-81
2021/04/08 08:54:50;;;;;;;2.67;2.03;;;8.00;99.90;;;;;;5100366;27;20418;-81
2021/04/08 08:57:20;;;;;;;4.07;2.03;;;8.20;96.30;;;;;;5102050;27;20147;-80
2021/04/08 08:59:50;;;;;;;4.43;1.55;;;8.30;94.50;;;;;;5113302;27;20051;-81
2021/04/08 09:02:18;;;;;;;2.17;1.60;;;8.60;93.00;;;;;;5104403;27;20059;-82
2021/04/08 09:04:45;;;;;;;1.85;1.20;;;8.80;87.10;;;;;;5105212;27;20117;-82
2021/04/08 09:07:14;;;;;;;3.65;1.50;;;9.20;82.20;;;;;;5101209;28;20588;-80
2021/04/08 09:09:52;;;;;;;2.35;1.73;;;9.40;71.70;;;;;;5090112;28;20051;-79
2021/04/08 09:12:19;;;;;;;5.97;1.75;;;9.40;72.90;;;;;;5098858;28;20383;-80
2021/04/08 09:14:49;;;;;;;3.67;1.65;;;9.30;69.30;;;;;;5070445;27;20138;-79
2021/04/08 09:17:43;;;;;;;5.60;2.45;;;9.20;69.20;;;;;;5108646;27;20052;-79
2021/04/08 09:20:16;;;;;;;4.13;2.25;;;9.00;70.70;;;;;;5109799;27;20527;-79
2021/04/08 09:22:59;;;;;;;3.88;1.50;;;9.00;72.20;;;;;;5101126;28;20043;-79
2021/04/08 09:25:33;;;;;;;2.58;1.48;;;9.10;71.00;;;;;;5099352;28;20050;-81
2021/04/08 09:28:12;;;;;;;3.33;1.85;;;9.30;68.50;;;;;;5096784;27;20445;-79
2021/04/08 09:33:40;;;;;;;3.90;1.70;;;9.60;69.40;;;;;;5100211;28;20057;-81
2021/04/08 09:36:21;;;;;;;3.03;2.00;;;9.70;70.70;;;;;;5102078;27;20047;-81
2021/04/08 09:38:54;;;;;;;3.25;1.48;;;9.80;66.40;;;;;;5098277;27;20595;-79
2021/04/08 09:41:44;;;;;;;6.63;2.10;;;9.80;65.50;;;;;;5080931;28;26570;-82
2021/04/08 09:44:14;;;;;;;3.97;1.98;;;9.80;67.50;;;;;;5019092;28;20041;-80
2021/04/08 09:46:42;;;;;;;8.52;3.42;;;9.90;66.60;;;;;;5035390;28;20150;-81
2021/04/08 09:49:10;;;;;;;2.95;1.92;;;9.90;68.70;;;;;;5021618;28;20046;-83
2021/04/08 09:51:44;;;;;;;4.05;2.10;;;10.00;68.40;;;;;;5017267;28;20056;-82
2021/04/08 09:54:16;;;;;;;3.58;2.25;;;10.10;64.20;;;;;;5037916;28;20053;-82
2021/04/08 09:56:46;;;;;;;3.20;2.45;;;9.90;65.30;;;;;;5042772;28;20484;-81
2021/04/08 09:59:14;;;;;;;3.58;2.03;;;9.70;64.80;;;;;;5040591;28;20060;-81
2021/04/08 10:01:41;;;;;;;3.17;2.40;;;9.70;65.30;;;;;;5040452;28;20063;-81
2021/04/08 10:04:19;;;;;;;8.07;2.97;;;9.60;67.10;;;;;;5030879;28;20052;-83
2021/04/08 10:06:57;;;;;;;5.30;2.63;;;9.60;63.60;;;;;;5042700;28;20044;-79
2021/04/08 10:09:26;;;;;;;5.28;3.08;;;9.40;67.50;;;;;;5023730;28;21345;-84
2021/04/08 10:22:39;;;;;;;5.07;3.10;;;9.40;71.20;;;;;;5054087;28;20359;-81
2021/04/08 10:25:06;;;;;;;6.03;3.33;;;8.70;71.80;;;;;;5035853;28;20067;-80
2021/04/08 10:27:33;;;;;;;8.00;3.78;;;8.60;73.00;;;;;;5042002;28;20052;-82
2021/04/08 10:29:59;;;;;;;5.55;3.63;;;8.50;72.20;;;;;;5029544;28;20147;-82
2021/04/08 10:32:34;;;;;;;5.20;3.42;;;8.40;72.40;;;;;;5003364;28;20063;-82
2021/04/08 10:35:02;;;;;;;10.25;3.38;;;8.30;74.10;;;;;;5016194;28;20049;-82
2021/04/08 10:37:28;;;;;;;4.88;3.53;;;8.30;72.90;;;;;;5018374;28;20045;-82
2021/04/08 10:39:54;;;;;;;7.50;3.42;;;8.30;73.30;;;;;;5017131;28;20049;-82
2021/04/08 10:42:22;;;;;;;7.88;4.05;;;8.30;73.80;;;;;;4992746;28;20049;-82
2021/04/08 10:44:51;;;;;;;6.65;3.20;;;8.40;71.10;;;;;;5024529;28;20109;-82
2021/04/08 10:47:20;;;;;;;9.48;3.70;;;8.40;74.70;;;;;;5018492;28;20053;-82
2021/04/08 10:49:49;;;;;;;10.98;3.92;;;8.70;75.20;;;;;;5038692;28;20118;-82
2021/04/08 10:52:18;;;;;;;7.97;3.53;;;9.00;74.30;;;;;;5082307;28;20065;-81
2021/04/08 10:54:49;;;;;;;6.85;3.85;;;9.20;74.70;;;;;;5062867;28;20100;-82
2021/04/08 10:57:16;;;;;;;6.78;4.20;;;9.40;72.50;;;;;;5074568;28;20555;-81
2021/04/08 10:59:44;;;;;;;9.82;5.88;;;9.60;71.50;;;;;;5072513;28;20049;-82
2021/04/08 11:02:29;;;;;;;11.50;4.72;;;9.70;72.10;;;;;;5050289;28;20058;-82
2021/04/08 11:04:56;;;;;;;;;;;9.70;70.50;;;;;;5062158;28;20049;-82
2021/04/08 11:07:24;;;;;;;9.65;4.25;;;9.80;70.90;;;;;;5052057;28;19920;-82
2021/04/08 11:09:52;;;;;;;7.50;4.28;;;9.70;69.70;;;;;;5051298;28;20044;-82
2021/04/08 11:12:26;;;;;;;7.75;4.03;;;9.60;69.90;;;;;;5066670;28;20208;-81
2021/04/08 11:14:57;;;;;;;;;;;9.60;67.60;;;;;;5044869;28;20080;-80
2021/04/08 11:17:25;;;;;;;10.27;4.47;;;9.50;68.70;;;;;;5063418;28;20272;-82
2021/04/08 11:19:54;;;;;;;14.07;4.78;;;9.40;69.70;;;;;;5050112;28;20052;-82
2021/04/08 11:22:25;;;;;;;14.25;5.00;;;9.40;70.90;;;;;;5071013;28;20072;-82
2021/04/08 11:24:54;;;;;;;6.75;4.47;;;9.50;71.40;;;;;;5055403;28;20065;-82
2021/04/08 11:27:44;;;;;;;9.63;4.75;;;9.60;70.60;;;;;;5066042;28;20558;-81
2021/04/08 11:30:41;;;;;;;10.88;5.43;;;9.70;70.50;;;;;;5052396;28;20061;-81
2021/04/08 11:33:19;;;;;;;10.10;5.03;;;9.90;70.40;;;;;;5018361;28;20107;-81
2021/04/08 11:35:47;;;;;;;6.72;4.60;;;10.10;70.50;;;;;;5030928;28;20048;-82
2021/04/08 11:38:24;;;;;;;7.97;5.32;;;10.20;69.10;;;;;;5056421;28;20159;-80
2021/04/08 11:40:59;;;;;;;11.40;5.05;;;10.10;69.30;;;;;;5037729;28;20481;-83
2021/04/08 11:43:33;;;;;;;6.90;5.10;;;10.00;71.00;;;;;;5027093;28;20055;-82
2021/04/08 11:46:01;;;;;;;8.98;5.40;;;9.90;71.50;;;;;;5048966;28;20139;-81
2021/04/08 11:48:42;;;;;;;10.43;5.68;;;9.90;69.70;;;;;;5030784;28;20056;-82
2021/04/08 11:51:09;;;;;;;6.75;5.18;;;9.80;70.90;;;;;;5032007;28;20139;-83
2021/04/08 11:53:43;;;;;;;7.13;5.00;;;9.90;72.30;;;;;;5052119;28;20283;-81
2021/04/08 11:56:29;;;;;;;13.05;6.22;;;10.20;71.30;;;;;;5033073;28;20529;-81
2021/04/08 11:59:23;;;;;;;10.40;5.22;;;10.60;70.10;;;;;;5037133;28;20067;-81
2021/04/08 12:01:52;;;;;;;5.38;4.65;;;10.90;68.00;;;;;;5057066;28;20049;-79
2021/04/08 12:04:22;;;;;;;11.65;5.72;;;11.00;68.10;;;;;;5052697;28;20496;-81
2021/04/08 12:06:57;;;;;;;12.85;5.38;;;11.30;67.20;;;;;;5036720;28;20089;-81
2021/04/08 12:09:34;;;;;;;9.38;5.30;;;11.50;68.10;;;;;;5034902;28;20130;-82
2021/04/08 12:12:00;;;;;;;8.05;5.45;;;12.10;66.40;;;;;;5049572;28;20051;-83
2021/04/08 12:14:27;;;;;;;5.78;4.28;;;12.20;66.50;;;;;;5028186;28;20052;-83
2021/04/08 12:17:05;;;;;;;9.77;4.22;;;12.30;61.20;;;;;;5046769;28;20065;-83
2021/04/08 12:19:33;;;;;;;7.32;4.47;;;12.10;64.10;;;;;;5035527;28;20057;-82
2021/04/08 12:22:01;;;;;;;7.72;4.63;;;11.90;62.60;;;;;;5027457;28;20134;-85
2021/04/08 12:24:36;;;;;;;7.28;5.28;;;11.70;64.10;;;;;;5023568;28;20052;-84
2021/04/08 12:27:18;;;;;;;8.98;5.38;;;11.90;66.70;;;;;;5055827;28;20053;-85
2021/04/08 12:31:02;;;;;;;8.00;6.40;;;12.00;64.70;;;;;;5012656;28;20431;-85
2021/04/08 12:37:36;;;;;;;7.18;5.38;;;11.70;66.90;;;;;;4879779;29;20103;-85
2021/04/08 12:41:07;;;;;;;8.68;6.05;;;12.50;62.80;;;;;;4844426;29;20119;-84
2021/04/08 12:43:56;;;;;;;8.45;6.38;;;13.30;64.00;;;;;;5060973;27;20376;-85
2021/04/08 12:46:23;;;;;;;20.13;6.30;;;13.70;59.10;;;;;;5053474;28;20055;-85
2021/04/08 12:48:49;;;;;;;8.93;5.80;;;14.20;57.60;;;;;;5042760;28;20041;-85
2021/04/08 12:51:16;;;;;;;9.20;6.00;;;14.60;58.90;;;;;;5041434;28;20103;-85
2021/04/08 12:53:43;;;;;;;7.85;5.10;;;15.30;56.70;;;;;;5043263;28;20064;-87
2021/04/08 12:56:09;;;;;;;7.22;5.28;;;16.10;54.90;;;;;;5041525;28;20500;-85
2021/04/08 12:58:35;;;;;;;7.93;5.05;;;16.50;53.40;;;;;;5041274;28;20053;-84
2021/04/08 13:01:02;;;;;;;6.32;5.63;;;16.30;50.30;;;;;;5040663;28;20053;-84
2021/04/08 13:03:28;;;;;;;8.57;5.15;;;15.90;51.40;;;;;;5040177;28;20132;-85
2021/04/08 13:05:54;;;;;;;9.80;6.93;;;15.30;52.90;;;;;;5043695;28;20095;-85
2021/04/08 13:08:21;;;;;;;7.28;6.00;;;15.10;54.20;;;;;;5061357;28;20056;-84
2021/04/08 13:10:48;;;;;;;7.20;6.45;;;15.50;52.60;;;;;;5046362;28;20069;-84
2021/04/08 13:13:14;;;;;;;9.00;6.70;;;15.80;51.90;;;;;;5041382;28;20076;-84
2021/04/08 13:15:40;;;;;;;8.98;6.05;;;15.70;51.40;;;;;;5042095;28;20140;-84
2021/04/08 13:18:07;;;;;;;8.48;6.05;;;15.40;52.10;;;;;;5059547;28;20463;-84
2021/04/08 13:20:34;;;;;;;8.32;6.05;;;15.20;53.30;;;;;;5040816;28;20045;-85
2021/04/08 13:23:02;;;;;;;5.35;4.60;;;15.50;53.40;;;;;;5060040;28;20072;-85
2021/04/08 13:25:31;;;;;;;6.47;4.70;;;15.40;52.00;;;;;;5037731;28;20052;-85
2021/04/08 13:27:58;;;;;;;6.95;4.50;;;14.80;51.90;;;;;;5044413;28;20057;-85
2021/04/08 13:30:27;;;;;;;11.68;4.65;;;14.00;52.90;;;;;;5044172;28;20571;-84
2021/04/08 13:32:53;;;;;;;5.43;4.70;;;13.40;55.70;;;;;;5042355;28;20076;-85